sensor_id;sensor_type;location;lat;lon;timestamp;pressure;altitude;pressure_sealevel;temperature;humidity
39455;BME280;25155;41.890;23.446;2023-05-03T00:02:08;92215.91;;;10.18;48.67
39455;BME280;25155;41.890;23.446;2023-05-03T00:04:36;92213.78;;;10.20;48.69
39455;BME280;25155;41.890;23.446;2023-05-03T00:07:04;92218.47;;;10.23;48.81
39455;BME280;25155;41.890;23.446;2023-05-03T00:09:32;92212.16;;;10.24;48.47
39455;BME280;25155;41.890;23.446;2023-05-03T00:11:59;92204.84;;;10.26;48.25
39455;BME280;25155;41.890;23.446;2023-05-03T00:14:28;92193.31;;;10.27;48.00
39455;BME280;25155;41.890;23.446;2023-05-03T00:16:55;92217.41;;;10.24;47.83
39455;BME280;25155;41.890;23.446;2023-05-03T00:19:22;92231.09;;;10.10;48.82
39455;BME280;25155;41.890;23.446;2023-05-03T00:21:54;92219.13;;;10.04;48.80
39455;BME280;25155;41.890;23.446;2023-05-03T00:24:21;92200.78;;;10.04;48.83
39455;BME280;25155;41.890;23.446;2023-05-03T00:26:48;92198.69;;;10.06;48.75
39455;BME280;25155;41.890;23.446;2023-05-03T00:29:15;92192.91;;;10.09;49.20
39455;BME280;25155;41.890;23.446;2023-05-03T00:31:44;92202.06;;;10.07;49.27
39455;BME280;25155;41.890;23.446;2023-05-03T00:34:12;92199.75;;;10.00;50.09
39455;BME280;25155;41.890;23.446;2023-05-03T00:36:39;92196.34;;;10.00;50.24
39455;BME280;25155;41.890;23.446;2023-05-03T00:39:06;92181.41;;;10.00;49.97
39455;BME280;25155;41.890;23.446;2023-05-03T00:41:33;92180.38;;;10.01;49.75
39455;BME280;25155;41.890;23.446;2023-05-03T00:44:00;92173.06;;;9.98;49.68
39455;BME280;25155;41.890;23.446;2023-05-03T00:46:28;92191.16;;;9.95;50.49
39455;BME280;25155;41.890;23.446;2023-05-03T00:48:56;92198.22;;;9.89;50.49
39455;BME280;25155;41.890;23.446;2023-05-03T00:51:26;92196.69;;;9.88;50.33
39455;BME280;25155;41.890;23.446;2023-05-03T00:53:53;92197.69;;;9.92;50.53
39455;BME280;25155;41.890;23.446;2023-05-03T00:56:21;92199.78;;;9.95;50.28
39455;BME280;25155;41.890;23.446;2023-05-03T00:58:50;92186.97;;;9.93;50.06
39455;BME280;25155;41.890;23.446;2023-05-03T01:01:18;92198.47;;;9.98;50.15
39455;BME280;25155;41.890;23.446;2023-05-03T01:03:46;92188.50;;;10.00;49.60
39455;BME280;25155;41.890;23.446;2023-05-03T01:06:24;92177.53;;;9.98;48.77
39455;BME280;25155;41.890;23.446;2023-05-03T01:08:57;92176.91;;;9.66;49.67
39455;BME280;25155;41.890;23.446;2023-05-03T01:11:36;92184.19;;;9.74;50.21
39455;BME280;25155;41.890;23.446;2023-05-03T01:14:11;92177.38;;;9.73;50.24
39455;BME280;25155;41.890;23.446;2023-05-03T01:16:46;92186.81;;;9.74;50.32
39455;BME280;25155;41.890;23.446;2023-05-03T01:19:26;92181.84;;;9.73;50.54
39455;BME280;25155;41.890;23.446;2023-05-03T01:24:46;92178.97;;;9.64;50.77
39455;BME280;25155;41.890;23.446;2023-05-03T01:27:18;92176.66;;;9.63;51.10
39455;BME280;25155;41.890;23.446;2023-05-03T01:29:45;92175.84;;;9.62;51.23
39455;BME280;25155;41.890;23.446;2023-05-03T01:32:19;92172.22;;;9.58;50.95
39455;BME280;25155;41.890;23.446;2023-05-03T01:34:53;92179.53;;;9.61;51.45
39455;BME280;25155;41.890;23.446;2023-05-03T01:37:21;92176.38;;;9.59;51.93
39455;BME280;25155;41.890;23.446;2023-05-03T01:39:52;92172.25;;;9.53;52.45
39455;BME280;25155;41.890;23.446;2023-05-03T01:42:23;92169.66;;;9.48;52.07
39455;BME280;25155;41.890;23.446;2023-05-03T01:44:51;92165.44;;;9.52;53.15
39455;BME280;25155;41.890;23.446;2023-05-03T01:47:19;92167.53;;;9.55;53.17
39455;BME280;25155;41.890;23.446;2023-05-03T01:49:47;92162.81;;;9.52;52.46
39455;BME280;25155;41.890;23.446;2023-05-03T01:52:14;92160.72;;;9.54;52.21
39455;BME280;25155;41.890;23.446;2023-05-03T01:54:42;92147.09;;;9.57;52.27
39455;BME280;25155;41.890;23.446;2023-05-03T01:57:09;92137.94;;;9.60;52.48
39455;BME280;25155;41.890;23.446;2023-05-03T01:59:37;92143.69;;;9.62;52.85
39455;BME280;25155;41.890;23.446;2023-05-03T02:02:04;92139.75;;;9.59;51.86
39455;BME280;25155;41.890;23.446;2023-05-03T02:04:31;92137.97;;;9.54;51.98
39455;BME280;25155;41.890;23.446;2023-05-03T02:06:58;92144.25;;;9.53;51.63
39455;BME280;25155;41.890;23.446;2023-05-03T02:09:25;92148.16;;;9.51;51.77
39455;BME280;25155;41.890;23.446;2023-05-03T02:11:52;92145.03;;;9.49;52.69
39455;BME280;25155;41.890;23.446;2023-05-03T02:14:19;92141.91;;;9.47;51.92
39455;BME280;25155;41.890;23.446;2023-05-03T02:16:48;92143.50;;;9.43;52.08
39455;BME280;25155;41.890;23.446;2023-05-03T02:19:16;92134.09;;;9.42;51.29
39455;BME280;25155;41.890;23.446;2023-05-03T02:21:43;92131.75;;;9.40;51.49
39455;BME280;25155;41.890;23.446;2023-05-03T02:24:10;92128.88;;;9.42;51.14
39455;BME280;25155;41.890;23.446;2023-05-03T02:26:37;92128.88;;;9.42;51.78
39455;BME280;25155;41.890;23.446;2023-05-03T02:29:04;92142.50;;;9.33;52.08
39455;BME280;25155;41.890;23.446;2023-05-03T02:31:32;92139.91;;;9.28;51.88
39455;BME280;25155;41.890;23.446;2023-05-03T02:34:00;92145.44;;;9.22;52.90
39455;BME280;25155;41.890;23.446;2023-05-03T02:36:28;92138.34;;;9.27;52.95
39455;BME280;25155;41.890;23.446;2023-05-03T02:38:55;92136.22;;;9.29;52.62
39455;BME280;25155;41.890;23.446;2023-05-03T02:41:22;92142.00;;;9.26;53.97
39455;BME280;25155;41.890;23.446;2023-05-03T02:43:49;92148.03;;;9.27;53.73
39455;BME280;25155;41.890;23.446;2023-05-03T02:46:16;92153.50;;;9.30;53.57
39455;BME280;25155;41.890;23.446;2023-05-03T02:48:43;92158.69;;;9.35;53.15
39455;BME280;25155;41.890;23.446;2023-05-03T02:51:12;92156.88;;;9.31;54.64
39455;BME280;25155;41.890;23.446;2023-05-03T02:53:39;92159.53;;;9.26;55.63
39455;BME280;25155;41.890;23.446;2023-05-03T02:56:06;92154.03;;;9.22;56.01
39455;BME280;25155;41.890;23.446;2023-05-03T02:58:34;92151.69;;;9.26;55.14
39455;BME280;25155;41.890;23.446;2023-05-03T03:01:01;92167.66;;;9.19;56.72
39455;BME280;25155;41.890;23.446;2023-05-03T03:03:28;92170.81;;;9.11;57.07
39455;BME280;25155;41.890;23.446;2023-05-03T03:05:55;92181.25;;;9.11;56.98
39455;BME280;25155;41.890;23.446;2023-05-03T03:08:24;92181.25;;;9.11;56.40
39455;BME280;25155;41.890;23.446;2023-05-03T03:10:51;92190.16;;;9.15;55.99
39455;BME280;25155;41.890;23.446;2023-05-03T03:13:19;92200.06;;;9.13;55.78
39455;BME280;25155;41.890;23.446;2023-05-03T03:15:46;92214.19;;;9.22;55.91
39455;BME280;25155;41.890;23.446;2023-05-03T03:18:13;92214.44;;;9.26;55.79
39455;BME280;25155;41.890;23.446;2023-05-03T03:20:42;92205.31;;;9.23;55.72
39455;BME280;25155;41.890;23.446;2023-05-03T03:23:09;92213.66;;;9.30;55.42
39455;BME280;25155;41.890;23.446;2023-05-03T03:25:38;92218.34;;;9.33;55.05
39455;BME280;25155;41.890;23.446;2023-05-03T03:28:05;92232.44;;;9.37;55.17
39455;BME280;25155;41.890;23.446;2023-05-03T03:30:32;92243.97;;;9.36;55.51
39455;BME280;25155;41.890;23.446;2023-05-03T03:32:59;92252.34;;;9.33;55.51
39455;BME280;25155;41.890;23.446;2023-05-03T03:35:26;92257.34;;;9.30;56.02
39455;BME280;25155;41.890;23.446;2023-05-03T03:37:54;92254.44;;;9.26;56.40
39455;BME280;25155;41.890;23.446;2023-05-03T03:40:21;92265.72;;;9.22;56.48
39455;BME280;25155;41.890;23.446;2023-05-03T03:42:49;92266.50;;;9.17;56.57
39455;BME280;25155;41.890;23.446;2023-05-03T03:45:16;92276.16;;;9.11;57.48
39455;BME280;25155;41.890;23.446;2023-05-03T03:47:43;92281.16;;;8.97;58.30
39455;BME280;25155;41.890;23.446;2023-05-03T03:50:10;92280.88;;;8.84;59.32
39455;BME280;25155;41.890;23.446;2023-05-03T03:52:37;92290.78;;;8.66;59.37
39455;BME280;25155;41.890;23.446;2023-05-03T03:55:05;92294.16;;;8.51;59.23
39455;BME280;25155;41.890;23.446;2023-05-03T03:57:32;92292.81;;;8.38;59.76
39455;BME280;25155;41.890;23.446;2023-05-03T04:00:01;92291.78;;;8.29;60.43
39455;BME280;25155;41.890;23.446;2023-05-03T04:02:34;92304.53;;;8.20;60.46
39455;BME280;25155;41.890;23.446;2023-05-03T04:05:01;92306.84;;;8.12;61.06
39455;BME280;25155;41.890;23.446;2023-05-03T04:07:29;92311.81;;;8.08;60.54
39455;BME280;25155;41.890;23.446;2023-05-03T04:09:56;92313.31;;;7.94;60.00
39455;BME280;25155;41.890;23.446;2023-05-03T04:12:23;92317.50;;;7.95;60.05
39455;BME280;25155;41.890;23.446;2023-05-03T04:14:50;92318.00;;;7.92;60.65
39455;BME280;25155;41.890;23.446;2023-05-03T04:17:19;92332.06;;;7.85;60.37
39455;BME280;25155;41.890;23.446;2023-05-03T04:19:46;92329.19;;;7.82;60.56
39455;BME280;25155;41.890;23.446;2023-05-03T04:22:13;92334.91;;;7.79;60.76
39455;BME280;25155;41.890;23.446;2023-05-03T04:24:40;92332.03;;;7.80;60.54
39455;BME280;25155;41.890;23.446;2023-05-03T04:27:08;92333.13;;;7.84;59.92
39455;BME280;25155;41.890;23.446;2023-05-03T04:29:36;92338.59;;;7.88;60.36
39455;BME280;25155;41.890;23.446;2023-05-03T04:32:03;92343.31;;;7.91;59.80
39455;BME280;25155;41.890;23.446;2023-05-03T04:34:32;92347.75;;;7.90;60.11
39455;BME280;25155;41.890;23.446;2023-05-03T04:36:59;92346.97;;;7.95;60.04
39455;BME280;25155;41.890;23.446;2023-05-03T04:39:26;92353.28;;;7.99;59.89
39455;BME280;25155;41.890;23.446;2023-05-03T04:41:54;92345.97;;;8.01;60.38
39455;BME280;25155;41.890;23.446;2023-05-03T04:44:21;92339.44;;;7.99;60.12
39455;BME280;25155;41.890;23.446;2023-05-03T04:46:48;92344.38;;;7.95;60.90
39455;BME280;25155;41.890;23.446;2023-05-03T04:49:15;92349.31;;;7.92;61.18
39455;BME280;25155;41.890;23.446;2023-05-03T04:51:43;92350.34;;;7.90;61.27
39455;BME280;25155;41.890;23.446;2023-05-03T04:54:12;92335.75;;;7.89;60.96
39455;BME280;25155;41.890;23.446;2023-05-03T04:56:40;92332.09;;;7.90;61.69
39455;BME280;25155;41.890;23.446;2023-05-03T04:59:07;92346.72;;;7.92;61.22
39455;BME280;25155;41.890;23.446;2023-05-03T05:01:35;92350.91;;;7.93;61.86
39455;BME280;25155;41.890;23.446;2023-05-03T05:04:02;92355.63;;;7.96;61.40
39455;BME280;25155;41.890;23.446;2023-05-03T05:06:29;92354.84;;;8.00;61.53
39455;BME280;25155;41.890;23.446;2023-05-03T05:08:57;92349.34;;;7.97;62.34
39455;BME280;25155;41.890;23.446;2023-05-03T05:11:24;92354.59;;;8.02;62.04
39455;BME280;25155;41.890;23.446;2023-05-03T05:13:51;92356.44;;;8.06;62.18
39455;BME280;25155;41.890;23.446;2023-05-03T05:16:19;92358.78;;;8.08;61.64
39455;BME280;25155;41.890;23.446;2023-05-03T05:18:46;92367.66;;;8.07;61.83
39455;BME280;25155;41.890;23.446;2023-05-03T05:21:13;92369.22;;;8.08;61.34
39455;BME280;25155;41.890;23.446;2023-05-03T05:23:40;92360.38;;;8.09;61.12
39455;BME280;25155;41.890;23.446;2023-05-03T05:26:09;92367.66;;;8.07;61.27
39455;BME280;25155;41.890;23.446;2023-05-03T05:28:36;92363.50;;;8.11;61.32
39455;BME280;25155;41.890;23.446;2023-05-03T05:31:03;92366.13;;;8.16;61.73
39455;BME280;25155;41.890;23.446;2023-05-03T05:33:30;92370.34;;;8.17;61.52
39455;BME280;25155;41.890;23.446;2023-05-03T05:35:57;92364.06;;;8.18;61.88
39455;BME280;25155;41.890;23.446;2023-05-03T05:38:25;92351.75;;;8.14;61.63
39455;BME280;25155;41.890;23.446;2023-05-03T05:40:52;92352.31;;;8.21;61.34
39455;BME280;25155;41.890;23.446;2023-05-03T05:43:21;92358.09;;;8.28;61.43
39455;BME280;25155;41.890;23.446;2023-05-03T05:45:48;92363.31;;;8.33;61.30
39455;BME280;25155;41.890;23.446;2023-05-03T05:48:15;92355.75;;;8.37;61.49
39455;BME280;25155;41.890;23.446;2023-05-03T05:50:42;92357.09;;;8.39;61.15
39455;BME280;25155;41.890;23.446;2023-05-03T05:53:09;92353.19;;;8.42;61.01
39455;BME280;25155;41.890;23.446;2023-05-03T05:55:36;92356.81;;;8.41;61.68
39455;BME280;25155;41.890;23.446;2023-05-03T05:58:03;92353.19;;;8.42;61.09
39455;BME280;25155;41.890;23.446;2023-05-03T06:00:31;92353.19;;;8.42;61.39
39455;BME280;25155;41.890;23.446;2023-05-03T06:02:59;92353.44;;;8.45;61.84
39455;BME280;25155;41.890;23.446;2023-05-03T06:05:26;92351.63;;;8.46;61.61
39455;BME280;25155;41.890;23.446;2023-05-03T06:07:53;92345.38;;;8.52;61.39
39455;BME280;25155;41.890;23.446;2023-05-03T06:10:20;92349.81;;;8.57;61.16
39455;BME280;25155;41.890;23.446;2023-05-03T06:12:47;92344.59;;;8.62;61.35
39455;BME280;25155;41.890;23.446;2023-05-03T06:15:16;92340.69;;;8.64;60.67
39455;BME280;25155;41.890;23.446;2023-05-03T06:17:44;92346.16;;;8.68;61.26
39455;BME280;25155;41.890;23.446;2023-05-03T06:20:12;92339.66;;;8.71;61.16
39455;BME280;25155;41.890;23.446;2023-05-03T06:22:39;92342.00;;;8.72;61.43
39455;BME280;25155;41.890;23.446;2023-05-03T06:25:06;92343.31;;;8.75;60.67
39455;BME280;25155;41.890;23.446;2023-05-03T06:27:34;92344.88;;;8.71;60.54
39455;BME280;25155;41.890;23.446;2023-05-03T06:30:01;92346.44;;;8.67;60.79
39455;BME280;25155;41.890;23.446;2023-05-03T06:32:28;92349.31;;;8.65;60.77
39455;BME280;25155;41.890;23.446;2023-05-03T06:34:57;92345.38;;;8.57;60.71
39455;BME280;25155;41.890;23.446;2023-05-03T06:37:25;92338.84;;;8.60;60.77
39455;BME280;25155;41.890;23.446;2023-05-03T06:39:52;92339.66;;;8.66;60.76
39455;BME280;25155;41.890;23.446;2023-05-03T06:42:19;92334.44;;;8.71;61.23
39455;BME280;25155;41.890;23.446;2023-05-03T06:44:46;92329.19;;;8.76;61.67
39455;BME280;25155;41.890;23.446;2023-05-03T06:47:13;92331.81;;;8.81;61.34
39455;BME280;25155;41.890;23.446;2023-05-03T06:49:40;92329.47;;;8.85;61.31
39455;BME280;25155;41.890;23.446;2023-05-03T06:52:09;92327.66;;;8.85;61.50
39455;BME280;25155;41.890;23.446;2023-05-03T06:54:36;92332.41;;;8.93;61.58
39455;BME280;25155;41.890;23.446;2023-05-03T06:57:04;92332.88;;;8.90;61.83
39455;BME280;25155;41.890;23.446;2023-05-03T06:59:32;92332.34;;;8.83;62.14
39455;BME280;25155;41.890;23.446;2023-05-03T07:01:59;92332.88;;;8.80;61.82
39455;BME280;25155;41.890;23.446;2023-05-03T07:04:26;92333.41;;;8.82;61.58
39455;BME280;25155;41.890;23.446;2023-05-03T07:06:54;92334.69;;;8.85;61.41
39455;BME280;25155;41.890;23.446;2023-05-03T07:09:22;92328.44;;;8.80;61.76
39455;BME280;25155;41.890;23.446;2023-05-03T07:11:49;92330.31;;;8.95;61.81
39455;BME280;25155;41.890;23.446;2023-05-03T07:14:17;92334.75;;;9.05;61.95
39455;BME280;25155;41.890;23.446;2023-05-03T07:16:44;92328.75;;;9.15;61.66
39455;BME280;25155;41.890;23.446;2023-05-03T07:19:11;92333.44;;;9.23;61.79
39455;BME280;25155;41.890;23.446;2023-05-03T07:21:38;92329.75;;;9.29;61.40
39455;BME280;25155;41.890;23.446;2023-05-03T07:24:06;92321.91;;;9.34;61.57
39455;BME280;25155;41.890;23.446;2023-05-03T07:26:34;92331.06;;;9.37;61.06
39455;BME280;25155;41.890;23.446;2023-05-03T07:29:01;92324.53;;;9.40;61.02
39455;BME280;25155;41.890;23.446;2023-05-03T07:31:28;92333.44;;;9.39;60.92
39455;BME280;25155;41.890;23.446;2023-05-03T07:33:56;92336.56;;;9.35;60.86
39455;BME280;25155;41.890;23.446;2023-05-03T07:36:23;92328.44;;;9.37;61.06
39455;BME280;25155;41.890;23.446;2023-05-03T07:38:50;92338.16;;;9.31;61.47
39455;BME280;25155;41.890;23.446;2023-05-03T07:41:17;92333.44;;;9.23;61.40
39455;BME280;25155;41.890;23.446;2023-05-03T07:43:46;92343.63;;;9.09;62.22
39455;BME280;25155;41.890;23.446;2023-05-03T07:46:14;92341.81;;;9.10;61.51
39455;BME280;25155;41.890;23.446;2023-05-03T07:48:41;92344.94;;;9.12;61.71
39455;BME280;25155;41.890;23.446;2023-05-03T07:51:08;92336.84;;;9.13;61.94
39455;BME280;25155;41.890;23.446;2023-05-03T07:53:35;92348.59;;;9.06;62.66
39455;BME280;25155;41.890;23.446;2023-05-03T07:56:06;92351.44;;;8.84;62.53
39455;BME280;25155;41.890;23.446;2023-05-03T07:58:33;92348.00;;;8.83;62.93
39455;BME280;25155;41.890;23.446;2023-05-03T08:01:02;92333.16;;;8.84;62.19
39455;BME280;25155;41.890;23.446;2023-05-03T08:03:29;92327.91;;;8.89;62.15
39455;BME280;25155;41.890;23.446;2023-05-03T08:05:56;92330.53;;;8.89;62.24
39455;BME280;25155;41.890;23.446;2023-05-03T08:08:23;92331.84;;;8.96;62.52
39455;BME280;25155;41.890;23.446;2023-05-03T08:10:51;92335.28;;;9.02;62.89
39455;BME280;25155;41.890;23.446;2023-05-03T08:13:18;92325.84;;;8.96;61.92
39455;BME280;25155;41.890;23.446;2023-05-03T08:15:47;92322.19;;;8.92;62.73
39455;BME280;25155;41.890;23.446;2023-05-03T08:18:15;92319.00;;;8.90;62.21
39455;BME280;25155;41.890;23.446;2023-05-03T08:20:43;92313.56;;;9.07;62.75
39455;BME280;25155;41.890;23.446;2023-05-03T08:23:11;92317.72;;;9.18;62.52
39455;BME280;25155;41.890;23.446;2023-05-03T08:25:38;92318.28;;;9.25;63.07
39455;BME280;25155;41.890;23.446;2023-05-03T08:28:05;92309.91;;;9.23;62.80
39455;BME280;25155;41.890;23.446;2023-05-03T08:30:33;92307.28;;;9.28;63.46
39455;BME280;25155;41.890;23.446;2023-05-03T08:33:00;92303.34;;;9.36;63.28
39455;BME280;25155;41.890;23.446;2023-05-03T08:35:28;92319.00;;;9.57;63.43
39455;BME280;25155;41.890;23.446;2023-05-03T08:37:56;92314.25;;;9.69;61.90
39455;BME280;25155;41.890;23.446;2023-05-03T08:40:25;92308.50;;;9.67;61.12
39455;BME280;25155;41.890;23.446;2023-05-03T08:42:54;92314.53;;;9.62;60.75
39455;BME280;25155;41.890;23.446;2023-05-03T08:45:22;92318.75;;;9.63;61.11
39455;BME280;25155;41.890;23.446;2023-05-03T08:47:53;92319.75;;;9.72;60.62
39455;BME280;25155;41.890;23.446;2023-05-03T08:50:21;92319.75;;;9.83;61.06
39455;BME280;25155;41.890;23.446;2023-05-03T08:52:50;92328.91;;;9.80;61.37
39455;BME280;25155;41.890;23.446;2023-05-03T08:55:17;92325.75;;;9.78;60.21
39455;BME280;25155;41.890;23.446;2023-05-03T08:57:44;92309.28;;;9.78;60.89
39455;BME280;25155;41.890;23.446;2023-05-03T09:00:12;92308.25;;;9.73;61.24
39455;BME280;25155;41.890;23.446;2023-05-03T09:02:40;92323.44;;;9.71;61.17
39455;BME280;25155;41.890;23.446;2023-05-03T09:05:32;92312.16;;;9.76;61.12
39455;BME280;25155;41.890;23.446;2023-05-03T09:08:02;92307.94;;;9.85;60.25
39455;BME280;25155;41.890;23.446;2023-05-03T09:10:30;92310.78;;;9.99;59.39
39455;BME280;25155;41.890;23.446;2023-05-03T09:12:58;92315.47;;;10.02;59.81
39455;BME280;25155;41.890;23.446;2023-05-03T09:15:25;92317.09;;;9.93;60.65
39455;BME280;25155;41.890;23.446;2023-05-03T09:18:14;92319.75;;;9.78;59.84
39455;BME280;25155;41.890;23.446;2023-05-03T09:20:42;92315.28;;;9.78;60.72
39455;BME280;25155;41.890;23.446;2023-05-03T09:23:18;92318.38;;;9.90;60.16
39455;BME280;25155;41.890;23.446;2023-05-03T09:25:47;92322.59;;;9.91;59.81
39455;BME280;25155;41.890;23.446;2023-05-03T09:28:15;92311.88;;;9.88;59.74
39455;BME280;25155;41.890;23.446;2023-05-03T09:30:43;92306.63;;;9.93;60.94
39455;BME280;25155;41.890;23.446;2023-05-03T09:33:10;92307.59;;;10.02;60.36
39455;BME280;25155;41.890;23.446;2023-05-03T09:35:55;92307.06;;;10.16;59.97
39455;BME280;25155;41.890;23.446;2023-05-03T09:38:28;92298.06;;;10.32;60.15
39455;BME280;25155;41.890;23.446;2023-05-03T09:40:55;92287.28;;;10.44;60.66
39455;BME280;25155;41.890;23.446;2023-05-03T09:43:22;92286.97;;;10.56;61.59
39455;BME280;25155;41.890;23.446;2023-05-03T09:45:50;92291.50;;;10.79;63.97
39455;BME280;25155;41.890;23.446;2023-05-03T09:48:17;92284.66;;;10.83;60.92
39455;BME280;25155;41.890;23.446;2023-05-03T09:50:48;92283.84;;;10.88;61.80
39455;BME280;25155;41.890;23.446;2023-05-03T09:53:15;92278.78;;;11.02;61.13
39455;BME280;25155;41.890;23.446;2023-05-03T09:55:48;92284.50;;;11.04;60.57
39455;BME280;25155;41.890;23.446;2023-05-03T09:58:17;92284.25;;;11.06;60.47
39455;BME280;25155;41.890;23.446;2023-05-03T10:00:45;92278.44;;;11.09;60.29
39455;BME280;25155;41.890;23.446;2023-05-03T10:03:21;92270.81;;;11.12;60.49
39455;BME280;25155;41.890;23.446;2023-05-03T10:05:50;92271.22;;;11.25;60.81
39455;BME280;25155;41.890;23.446;2023-05-03T10:08:23;92265.91;;;11.35;60.60
39455;BME280;25155;41.890;23.446;2023-05-03T10:10:53;92264.22;;;11.44;60.02
39455;BME280;25155;41.890;23.446;2023-05-03T10:13:21;92261.25;;;11.51;59.79
39455;BME280;25155;41.890;23.446;2023-05-03T10:15:57;92255.19;;;11.55;59.99
39455;BME280;25155;41.890;23.446;2023-05-03T10:18:29;92255.09;;;11.66;60.20
39455;BME280;25155;41.890;23.446;2023-05-03T10:21:01;92248.50;;;11.68;59.92
39455;BME280;25155;41.890;23.446;2023-05-03T10:23:30;92253.72;;;11.73;59.61
39455;BME280;25155;41.890;23.446;2023-05-03T10:26:14;92246.31;;;11.75;59.11
39455;BME280;25155;41.890;23.446;2023-05-03T10:28:41;92256.22;;;11.84;57.93
39455;BME280;25155;41.890;23.446;2023-05-03T10:31:45;92239.47;;;11.80;57.92
39455;BME280;25155;41.890;23.446;2023-05-03T10:34:22;92245.22;;;11.82;57.65
39455;BME280;25155;41.890;23.446;2023-05-03T10:36:50;92237.56;;;11.85;57.38
39455;BME280;25155;41.890;23.446;2023-05-03T10:39:19;92237.75;;;11.89;58.50
39455;BME280;25155;41.890;23.446;2023-05-03T10:41:58;92233.06;;;11.86;58.29
39455;BME280;25155;41.890;23.446;2023-05-03T10:44:26;92235.88;;;11.94;58.05
39455;BME280;25155;41.890;23.446;2023-05-03T10:46:54;92209.97;;;12.07;57.20
39455;BME280;25155;41.890;23.446;2023-05-03T10:49:22;92222.31;;;12.06;58.38
39455;BME280;25155;41.890;23.446;2023-05-03T10:51:51;92224.31;;;12.15;58.91
39455;BME280;25155;41.890;23.446;2023-05-03T10:54:18;92229.22;;;12.21;58.84
39455;BME280;25155;41.890;23.446;2023-05-03T10:56:53;92232.50;;;12.13;56.64
39455;BME280;25155;41.890;23.446;2023-05-03T10:59:22;92227.44;;;12.17;56.94
39455;BME280;25155;41.890;23.446;2023-05-03T11:01:51;92233.13;;;12.05;56.46
39455;BME280;25155;41.890;23.446;2023-05-03T11:04:32;92229.06;;;11.93;57.04
39455;BME280;25155;41.890;23.446;2023-05-03T11:07:01;92216.63;;;11.99;56.99
39455;BME280;25155;41.890;23.446;2023-05-03T11:09:30;92218.69;;;12.02;56.97
39455;BME280;25155;41.890;23.446;2023-05-03T11:11:57;92219.97;;;12.05;57.37
39455;BME280;25155;41.890;23.446;2023-05-03T11:14:26;92224.00;;;11.97;56.48
39455;BME280;25155;41.890;23.446;2023-05-03T11:16:53;92222.47;;;11.96;56.55
39455;BME280;25155;41.890;23.446;2023-05-03T11:19:22;92219.84;;;11.96;56.83
39455;BME280;25155;41.890;23.446;2023-05-03T11:21:50;92205.91;;;11.95;56.97
39455;BME280;25155;41.890;23.446;2023-05-03T11:24:17;92219.03;;;11.95;56.46
39455;BME280;25155;41.890;23.446;2023-05-03T11:26:44;92224.06;;;11.92;56.90
39455;BME280;25155;41.890;23.446;2023-05-03T11:29:11;92226.22;;;11.90;58.22
39455;BME280;25155;41.890;23.446;2023-05-03T11:31:40;92222.91;;;11.79;59.15
39455;BME280;25155;41.890;23.446;2023-05-03T11:34:08;92216.66;;;11.75;59.11
39455;BME280;25155;41.890;23.446;2023-05-03T11:36:36;92214.59;;;11.72;59.68
39455;BME280;25155;41.890;23.446;2023-05-03T11:39:03;92211.47;;;11.70;59.83
39455;BME280;25155;41.890;23.446;2023-05-03T11:41:31;92214.38;;;11.68;59.54
39455;BME280;25155;41.890;23.446;2023-05-03T11:43:58;92219.91;;;11.67;60.57
39455;BME280;25155;41.890;23.446;2023-05-03T11:46:27;92223.09;;;11.64;60.31
39455;BME280;25155;41.890;23.446;2023-05-03T11:48:58;92225.56;;;11.26;61.08
39455;BME280;25155;41.890;23.446;2023-05-03T11:51:26;92221.44;;;11.44;60.57
39455;BME280;25155;41.890;23.446;2023-05-03T11:53:54;92220.44;;;11.39;61.04
39455;BME280;25155;41.890;23.446;2023-05-03T11:56:22;92226.81;;;11.33;60.49
39455;BME280;25155;41.890;23.446;2023-05-03T11:58:51;92216.66;;;11.27;60.75
39455;BME280;25155;41.890;23.446;2023-05-03T12:01:22;92215.91;;;11.21;61.36
39455;BME280;25155;41.890;23.446;2023-05-03T12:03:53;92209.13;;;11.15;62.33
39455;BME280;25155;41.890;23.446;2023-05-03T12:06:23;92208.91;;;11.11;62.19
39455;BME280;25155;41.890;23.446;2023-05-03T12:08:52;92210.47;;;11.12;62.12
39455;BME280;25155;41.890;23.446;2023-05-03T12:11:19;92204.97;;;11.14;63.01
39455;BME280;25155;41.890;23.446;2023-05-03T12:13:55;92191.06;;;11.13;62.83
39455;BME280;25155;41.890;23.446;2023-05-03T12:16:24;92184.97;;;11.18;64.43
39455;BME280;25155;41.890;23.446;2023-05-03T12:18:53;92178.94;;;11.17;64.16
39455;BME280;25155;41.890;23.446;2023-05-03T12:21:24;92180.00;;;11.16;63.72
39455;BME280;25155;41.890;23.446;2023-05-03T12:23:52;92173.44;;;11.19;63.77
39455;BME280;25155;41.890;23.446;2023-05-03T12:26:19;92181.03;;;11.20;64.64
39455;BME280;25155;41.890;23.446;2023-05-03T12:28:48;92189.16;;;11.19;64.44
39455;BME280;25155;41.890;23.446;2023-05-03T12:31:15;92183.44;;;11.17;64.57
39455;BME280;25155;41.890;23.446;2023-05-03T12:33:43;92177.66;;;11.15;64.67
39455;BME280;25155;41.890;23.446;2023-05-03T12:36:10;92166.94;;;11.11;64.73
39455;BME280;25155;41.890;23.446;2023-05-03T12:38:39;92157.00;;;11.08;64.79
39455;BME280;25155;41.890;23.446;2023-05-03T12:41:06;92159.91;;;11.07;65.39
39455;BME280;25155;41.890;23.446;2023-05-03T12:43:33;92160.69;;;11.07;65.55
39455;BME280;25155;41.890;23.446;2023-05-03T12:46:00;92159.41;;;11.05;66.00
39455;BME280;25155;41.890;23.446;2023-05-03T12:48:28;92152.63;;;11.03;67.50
39455;BME280;25155;41.890;23.446;2023-05-03T12:50:56;92135.25;;;11.08;67.56
39455;BME280;25155;41.890;23.446;2023-05-03T12:53:24;92123.94;;;11.12;68.94
39455;BME280;25155;41.890;23.446;2023-05-03T12:55:52;92134.91;;;11.14;70.29
39455;BME280;25155;41.890;23.446;2023-05-03T12:58:20;92140.72;;;11.11;69.92
39455;BME280;25155;41.890;23.446;2023-05-03T13:00:47;92137.88;;;11.08;69.47
39455;BME280;25155;41.890;23.446;2023-05-03T13:03:16;92143.13;;;11.08;68.81
39455;BME280;25155;41.890;23.446;2023-05-03T13:05:43;92139.72;;;11.07;68.76
39455;BME280;25155;41.890;23.446;2023-05-03T13:08:11;92138.16;;;11.06;68.68